sensor_id;sensor_type;location;lat;lon;timestamp;pressure;altitude;pressure_sealevel;temperature;humidity
9110;BME280;4590;51.462;6.692;2023-02-28T00:00:34;102820.78;;;3.42;52.36
9110;BME280;4590;51.462;6.692;2023-02-28T00:03:00;102825.38;;;3.28;54.01
9110;BME280;4590;51.462;6.692;2023-02-28T00:05:27;102827.91;;;3.36;52.22
9110;BME280;4590;51.462;6.692;2023-02-28T00:07:53;102820.13;;;3.33;52.82
9110;BME280;4590;51.462;6.692;2023-02-28T00:10:25;102827.66;;;3.31;52.61
9110;BME280;4590;51.462;6.692;2023-02-28T00:12:51;102822.47;;;3.30;52.94
9110;BME280;4590;51.462;6.692;2023-02-28T00:15:17;102832.91;;;3.26;52.80
9110;BME280;4590;51.462;6.692;2023-02-28T00:17:43;102829.75;;;3.23;52.29
9110;BME280;4590;51.462;6.692;2023-02-28T00:20:09;102836.44;;;3.20;52.55
9110;BME280;4590;51.462;6.692;2023-02-28T00:22:44;102831.63;;;3.15;52.45
9110;BME280;4590;51.462;6.692;2023-02-28T00:25:12;102832.06;;;3.12;52.74
9110;BME280;4590;51.462;6.692;2023-02-28T00:27:39;102824.31;;;3.09;53.04
9110;BME280;4590;51.462;6.692;2023-02-28T00:30:05;102830.34;;;3.05;53.02
9110;BME280;4590;51.462;6.692;2023-02-28T00:32:31;102822.41;;;3.03;52.74
9110;BME280;4590;51.462;6.692;2023-02-28T00:34:57;102828.22;;;3.00;52.99
9110;BME280;4590;51.462;6.692;2023-02-28T00:37:23;102833.06;;;2.98;53.25
9110;BME280;4590;51.462;6.692;2023-02-28T00:39:48;102834.31;;;2.96;53.23
9110;BME280;4590;51.462;6.692;2023-02-28T00:42:13;102830.13;;;2.93;52.98
9110;BME280;4590;51.462;6.692;2023-02-28T00:44:39;102834.47;;;2.88;53.10
9110;BME280;4590;51.462;6.692;2023-02-28T00:47:04;102837.84;;;2.83;53.83
9110;BME280;4590;51.462;6.692;2023-02-28T00:49:29;102837.00;;;2.83;53.46
9110;BME280;4590;51.462;6.692;2023-02-28T00:51:55;102840.94;;;2.80;53.41
9110;BME280;4590;51.462;6.692;2023-02-28T00:54:21;102839.06;;;2.80;53.47
9110;BME280;4590;51.462;6.692;2023-02-28T00:56:47;102848.47;;;2.78;53.29
9110;BME280;4590;51.462;6.692;2023-02-28T00:59:13;102840.91;;;2.73;53.45
9110;BME280;4590;51.462;6.692;2023-02-28T01:01:39;102841.75;;;2.74;53.14
9110;BME280;4590;51.462;6.692;2023-02-28T01:04:04;102852.81;;;2.72;53.68
9110;BME280;4590;51.462;6.692;2023-02-28T01:06:30;102848.44;;;2.71;52.94
9110;BME280;4590;51.462;6.692;2023-02-28T01:08:55;102846.09;;;2.68;53.56
9110;BME280;4590;51.462;6.692;2023-02-28T01:11:20;102849.91;;;2.67;53.68
9110;BME280;4590;51.462;6.692;2023-02-28T01:13:46;102851.78;;;2.67;53.10
9110;BME280;4590;51.462;6.692;2023-02-28T01:16:12;102849.25;;;2.65;52.93
9110;BME280;4590;51.462;6.692;2023-02-28T01:18:39;102854.91;;;2.64;52.89
9110;BME280;4590;51.462;6.692;2023-02-28T01:21:10;102852.78;;;2.59;53.49
9110;BME280;4590;51.462;6.692;2023-02-28T01:23:36;102856.97;;;2.62;52.99
9110;BME280;4590;51.462;6.692;2023-02-28T01:26:10;102850.06;;;2.59;52.86
9110;BME280;4590;51.462;6.692;2023-02-28T01:28:36;102848.38;;;2.58;53.60
9110;BME280;4590;51.462;6.692;2023-02-28T01:31:01;102849.63;;;2.56;53.28
9110;BME280;4590;51.462;6.692;2023-02-28T01:33:27;102854.00;;;2.57;52.66
9110;BME280;4590;51.462;6.692;2023-02-28T01:36:00;102852.13;;;2.57;53.03
9110;BME280;4590;51.462;6.692;2023-02-28T01:38:26;102860.28;;;2.57;53.02
9110;BME280;4590;51.462;6.692;2023-02-28T01:40:52;102857.75;;;2.56;52.83
9110;BME280;4590;51.462;6.692;2023-02-28T01:43:23;102850.84;;;2.53;53.44
9110;BME280;4590;51.462;6.692;2023-02-28T01:45:50;102849.41;;;2.51;53.30
9110;BME280;4590;51.462;6.692;2023-02-28T01:48:16;102845.34;;;2.40;53.65
9110;BME280;4590;51.462;6.692;2023-02-28T01:50:43;102838.09;;;2.47;53.64
9110;BME280;4590;51.462;6.692;2023-02-28T01:53:14;102846.44;;;2.45;53.22
9110;BME280;4590;51.462;6.692;2023-02-28T01:55:42;102840.16;;;2.45;53.31
9110;BME280;4590;51.462;6.692;2023-02-28T01:58:10;102835.75;;;2.44;53.35
9110;BME280;4590;51.462;6.692;2023-02-28T02:00:36;102839.72;;;2.41;53.05
9110;BME280;4590;51.462;6.692;2023-02-28T02:03:06;102834.69;;;2.38;53.48
9110;BME280;4590;51.462;6.692;2023-02-28T02:05:36;102832.38;;;2.35;53.61
9110;BME280;4590;51.462;6.692;2023-02-28T02:08:04;102840.75;;;2.34;54.21
9110;BME280;4590;51.462;6.692;2023-02-28T02:13:13;102826.72;;;2.30;53.65
9110;BME280;4590;51.462;6.692;2023-02-28T02:18:31;102816.44;;;2.26;53.88
9110;BME280;4590;51.462;6.692;2023-02-28T02:35:11;102810.34;;;2.17;54.76
9110;BME280;4590;51.462;6.692;2023-02-28T02:37:59;102809.31;;;2.18;54.37
9110;BME280;4590;51.462;6.692;2023-02-28T02:40:32;102811.59;;;2.21;54.58
9110;BME280;4590;51.462;6.692;2023-02-28T02:43:22;102809.31;;;2.18;54.75
9110;BME280;4590;51.462;6.692;2023-02-28T02:45:56;102807.00;;;2.22;54.68
9110;BME280;4590;51.462;6.692;2023-02-28T02:48:26;102814.75;;;2.25;53.82
9110;BME280;4590;51.462;6.692;2023-02-28T02:50:57;102805.78;;;2.24;54.64
9110;BME280;4590;51.462;6.692;2023-02-28T02:53:29;102810.16;;;2.25;54.01
9110;BME280;4590;51.462;6.692;2023-02-28T02:55:56;102806.81;;;2.23;54.76
9110;BME280;4590;51.462;6.692;2023-02-28T02:58:27;102819.34;;;2.24;54.52
9110;BME280;4590;51.462;6.692;2023-02-28T03:00:57;102809.31;;;2.25;54.31
9110;BME280;4590;51.462;6.692;2023-02-28T03:03:24;102812.03;;;2.25;54.68
9110;BME280;4590;51.462;6.692;2023-02-28T03:05:58;102814.97;;;2.23;54.86
9110;BME280;4590;51.462;6.692;2023-02-28T03:08:24;102816.00;;;2.22;54.26
9110;BME280;4590;51.462;6.692;2023-02-28T03:10:51;102817.03;;;2.21;54.23
9110;BME280;4590;51.462;6.692;2023-02-28T03:13:33;102811.38;;;2.16;54.51
9110;BME280;4590;51.462;6.692;2023-02-28T03:21:27;102802.53;;;2.07;55.14
9110;BME280;4590;51.462;6.692;2023-02-28T03:24:03;102802.75;;;2.06;54.47
9110;BME280;4590;51.462;6.692;2023-02-28T03:26:31;102805.06;;;2.09;54.53
9110;BME280;4590;51.462;6.692;2023-02-28T03:29:06;102807.56;;;2.04;54.29
9110;BME280;4590;51.462;6.692;2023-02-28T03:31:40;102807.31;;;2.05;53.89
9110;BME280;4590;51.462;6.692;2023-02-28T03:34:11;102813.59;;;2.06;54.15
9110;BME280;4590;51.462;6.692;2023-02-28T03:36:42;102813.00;;;2.04;54.59
9110;BME280;4590;51.462;6.692;2023-02-28T03:39:14;102812.34;;;2.02;54.33
9110;BME280;4590;51.462;6.692;2023-02-28T03:42:00;102813.38;;;2.01;54.27
9110;BME280;4590;51.462;6.692;2023-02-28T03:44:48;102822.38;;;2.01;54.33
9110;BME280;4590;51.462;6.692;2023-02-28T03:47:28;102821.91;;;1.98;53.90
9110;BME280;4590;51.462;6.692;2023-02-28T03:50:06;102836.53;;;1.97;53.85
9110;BME280;4590;51.462;6.692;2023-02-28T03:52:42;102818.16;;;1.99;53.75
9110;BME280;4590;51.462;6.692;2023-02-28T03:55:11;102819.59;;;1.95;54.49
9110;BME280;4590;51.462;6.692;2023-02-28T03:57:58;102824.78;;;1.90;54.21
9110;BME280;4590;51.462;6.692;2023-02-28T04:00:37;102829.16;;;1.91;54.11
9110;BME280;4590;51.462;6.692;2023-02-28T04:03:03;102818.94;;;1.93;54.13
9110;BME280;4590;51.462;6.692;2023-02-28T04:05:29;102824.56;;;1.91;53.93
9110;BME280;4590;51.462;6.692;2023-02-28T04:08:04;102819.75;;;1.87;53.06
9110;BME280;4590;51.462;6.692;2023-02-28T04:10:29;102813.69;;;1.85;54.03
9110;BME280;4590;51.462;6.692;2023-02-28T04:12:55;102823.06;;;1.82;53.33
9110;BME280;4590;51.462;6.692;2023-02-28T04:15:20;102815.09;;;1.81;53.68
9110;BME280;4590;51.462;6.692;2023-02-28T04:17:47;102818.22;;;1.77;53.59
9110;BME280;4590;51.462;6.692;2023-02-28T04:20:13;102822.16;;;1.75;53.48
9110;BME280;4590;51.462;6.692;2023-02-28T04:22:38;102822.34;;;1.73;53.84
9110;BME280;4590;51.462;6.692;2023-02-28T04:25:04;102826.75;;;1.74;53.09
9110;BME280;4590;51.462;6.692;2023-02-28T04:27:30;102820.47;;;1.74;53.00
9110;BME280;4590;51.462;6.692;2023-02-28T04:29:55;102823.41;;;1.72;53.54
9110;BME280;4590;51.462;6.692;2023-02-28T04:32:21;102832.78;;;1.70;53.63
9110;BME280;4590;51.462;6.692;2023-02-28T04:34:46;102826.72;;;1.68;52.97
9110;BME280;4590;51.462;6.692;2023-02-28T04:37:11;102823.16;;;1.67;53.59
9110;BME280;4590;51.462;6.692;2023-02-28T04:39:37;102826.06;;;1.66;52.96
9110;BME280;4590;51.462;6.692;2023-02-28T04:42:03;102823.34;;;1.66;53.23
9110;BME280;4590;51.462;6.692;2023-02-28T04:44:29;102828.59;;;1.67;52.97
9110;BME280;4590;51.462;6.692;2023-02-28T04:46:54;102836.91;;;1.66;52.97
9110;BME280;4590;51.462;6.692;2023-02-28T04:49:19;102833.38;;;1.65;52.54
9110;BME280;4590;51.462;6.692;2023-02-28T04:51:45;102838.34;;;1.62;52.58
9110;BME280;4590;51.462;6.692;2023-02-28T04:54:10;102835.63;;;1.62;53.12
9110;BME280;4590;51.462;6.692;2023-02-28T04:56:35;102842.09;;;1.61;52.55
9110;BME280;4590;51.462;6.692;2023-02-28T04:59:00;102839.97;;;1.56;52.72
9110;BME280;4590;51.462;6.692;2023-02-28T05:01:31;102843.06;;;1.53;53.16
9110;BME280;4590;51.462;6.692;2023-02-28T05:03:59;102839.53;;;1.53;52.64
9110;BME280;4590;51.462;6.692;2023-02-28T05:06:27;102844.09;;;1.52;52.95
9110;BME280;4590;51.462;6.692;2023-02-28T05:08:53;102843.31;;;1.58;52.73
9110;BME280;4590;51.462;6.692;2023-02-28T05:11:30;102848.72;;;1.58;52.58
9110;BME280;4590;51.462;6.692;2023-02-28T05:14:03;102851.66;;;1.57;52.87
9110;BME280;4590;51.462;6.692;2023-02-28T05:16:29;102848.34;;;1.61;52.57
9110;BME280;4590;51.462;6.692;2023-02-28T05:18:54;102857.13;;;1.63;52.40
9110;BME280;4590;51.462;6.692;2023-02-28T05:21:24;102852.94;;;1.61;51.98
9110;BME280;4590;51.462;6.692;2023-02-28T05:23:50;102850.03;;;1.62;52.36
9110;BME280;4590;51.462;6.692;2023-02-28T05:26:15;102848.72;;;1.58;52.44
9110;BME280;4590;51.462;6.692;2023-02-28T05:28:41;102850.59;;;1.58;52.50
9110;BME280;4590;51.462;6.692;2023-02-28T05:31:07;102852.91;;;1.54;52.43
9110;BME280;4590;51.462;6.692;2023-02-28T05:33:32;102847.84;;;1.51;52.40
9110;BME280;4590;51.462;6.692;2023-02-28T05:35:57;102851.97;;;1.47;52.40
9110;BME280;4590;51.462;6.692;2023-02-28T05:38:23;102858.81;;;1.43;52.44
9110;BME280;4590;51.462;6.692;2023-02-28T05:40:48;102867.38;;;1.40;52.17
9110;BME280;4590;51.462;6.692;2023-02-28T05:43:13;102864.84;;;1.38;52.18
9110;BME280;4590;51.462;6.692;2023-02-28T05:45:39;102865.03;;;1.37;52.14
9110;BME280;4590;51.462;6.692;2023-02-28T05:48:04;102861.28;;;1.38;52.31
9110;BME280;4590;51.462;6.692;2023-02-28T05:50:29;102861.50;;;1.36;52.39
9110;BME280;4590;51.462;6.692;2023-02-28T05:52:55;102864.38;;;1.35;52.13
9110;BME280;4590;51.462;6.692;2023-02-28T05:55:20;102868.50;;;1.31;51.99
9110;BME280;4590;51.462;6.692;2023-02-28T05:57:45;102876.00;;;1.29;52.51
9110;BME280;4590;51.462;6.692;2023-02-28T06:00:11;102874.31;;;1.28;52.48
9110;BME280;4590;51.462;6.692;2023-02-28T06:02:38;102878.28;;;1.25;52.42
9110;BME280;4590;51.462;6.692;2023-02-28T06:05:04;102870.97;;;1.26;52.15
9110;BME280;4590;51.462;6.692;2023-02-28T06:07:29;102874.72;;;1.25;52.40
9110;BME280;4590;51.462;6.692;2023-02-28T06:09:55;102884.09;;;1.22;52.44
9110;BME280;4590;51.462;6.692;2023-02-28T06:12:20;102875.94;;;1.22;51.97
9110;BME280;4590;51.462;6.692;2023-02-28T06:14:45;102879.03;;;1.19;52.06
9110;BME280;4590;51.462;6.692;2023-02-28T06:17:10;102877.34;;;1.18;52.17
9110;BME280;4590;51.462;6.692;2023-02-28T06:19:39;102883.81;;;1.17;52.34
9110;BME280;4590;51.462;6.692;2023-02-28T06:22:06;102888.38;;;1.17;51.90
9110;BME280;4590;51.462;6.692;2023-02-28T06:24:31;102884.66;;;1.18;51.96
9110;BME280;4590;51.462;6.692;2023-02-28T06:26:57;102891.94;;;1.17;52.19
9110;BME280;4590;51.462;6.692;2023-02-28T06:29:29;102895.50;;;1.18;52.15
9110;BME280;4590;51.462;6.692;2023-02-28T06:31:55;102892.13;;;1.16;51.88
9110;BME280;4590;51.462;6.692;2023-02-28T06:34:20;102883.72;;;1.11;52.36
9110;BME280;4590;51.462;6.692;2023-02-28T06:36:45;102898.13;;;1.11;52.53
9110;BME280;4590;51.462;6.692;2023-02-28T06:39:11;102899.81;;;1.12;52.66
9110;BME280;4590;51.462;6.692;2023-02-28T06:41:36;102905.41;;;1.11;52.59
9110;BME280;4590;51.462;6.692;2023-02-28T06:44:04;102896.91;;;1.14;52.39
9110;BME280;4590;51.462;6.692;2023-02-28T06:46:30;102902.97;;;1.16;52.48
9110;BME280;4590;51.462;6.692;2023-02-28T06:48:56;102904.19;;;1.13;52.29
9110;BME280;4590;51.462;6.692;2023-02-28T06:51:21;102908.13;;;1.11;52.21
9110;BME280;4590;51.462;6.692;2023-02-28T06:53:47;102904.13;;;1.07;52.68
9110;BME280;4590;51.462;6.692;2023-02-28T06:56:15;102908.06;;;1.04;52.24
9110;BME280;4590;51.462;6.692;2023-02-28T06:58:41;102910.59;;;1.05;52.63
9110;BME280;4590;51.462;6.692;2023-02-28T07:01:07;102924.97;;;1.06;52.63
9110;BME280;4590;51.462;6.692;2023-02-28T07:03:35;102913.09;;;1.07;52.28
9110;BME280;4590;51.462;6.692;2023-02-28T07:06:00;102908.34;;;1.09;52.12
9110;BME280;4590;51.462;6.692;2023-02-28T07:08:26;102926.47;;;1.09;52.73
9110;BME280;4590;51.462;6.692;2023-02-28T07:10:57;102912.94;;;1.09;52.11
9110;BME280;4590;51.462;6.692;2023-02-28T07:13:23;102918.59;;;1.14;52.62
9110;BME280;4590;51.462;6.692;2023-02-28T07:15:54;102921.78;;;1.17;52.85
9110;BME280;4590;51.462;6.692;2023-02-28T07:18:19;102916.81;;;1.21;52.76
9110;BME280;4590;51.462;6.692;2023-02-28T07:20:44;102919.59;;;1.27;52.97
9110;BME280;4590;51.462;6.692;2023-02-28T07:23:10;102917.13;;;1.32;53.21
9110;BME280;4590;51.462;6.692;2023-02-28T07:25:35;102923.69;;;1.38;53.04
9110;BME280;4590;51.462;6.692;2023-02-28T07:28:00;102925.03;;;1.49;52.88
9110;BME280;4590;51.462;6.692;2023-02-28T07:30:26;102927.66;;;1.57;52.77
9110;BME280;4590;51.462;6.692;2023-02-28T07:32:51;102923.94;;;1.64;52.82
9110;BME280;4590;51.462;6.692;2023-02-28T07:35:16;102928.47;;;1.79;52.61
9110;BME280;4590;51.462;6.692;2023-02-28T07:37:42;102930.63;;;1.90;53.11
9110;BME280;4590;51.462;6.692;2023-02-28T07:40:10;102928.66;;;1.98;52.91
9110;BME280;4590;51.462;6.692;2023-02-28T07:42:40;102933.53;;;2.09;52.65
9110;BME280;4590;51.462;6.692;2023-02-28T07:45:06;102939.91;;;2.23;52.53
9110;BME280;4590;51.462;6.692;2023-02-28T07:47:32;102930.78;;;2.31;52.54
9110;BME280;4590;51.462;6.692;2023-02-28T07:49:57;102935.66;;;2.42;51.95
9110;BME280;4590;51.462;6.692;2023-02-28T07:52:23;102924.84;;;2.49;51.51
9110;BME280;4590;51.462;6.692;2023-02-28T07:54:50;102927.38;;;2.57;52.13
9110;BME280;4590;51.462;6.692;2023-02-28T07:57:15;102931.84;;;2.71;51.28
9110;BME280;4590;51.462;6.692;2023-02-28T07:59:41;102930.03;;;2.78;51.54
9110;BME280;4590;51.462;6.692;2023-02-28T08:02:06;102929.25;;;2.91;51.11
9110;BME280;4590;51.462;6.692;2023-02-28T08:04:32;102931.19;;;3.03;51.02
9110;BME280;4590;51.462;6.692;2023-02-28T08:06:58;102928.50;;;3.16;51.01
9110;BME280;4590;51.462;6.692;2023-02-28T08:09:23;102927.31;;;3.32;50.48
9110;BME280;4590;51.462;6.692;2023-02-28T08:11:48;102935.94;;;3.49;50.82
9110;BME280;4590;51.462;6.692;2023-02-28T08:14:14;102921.72;;;3.67;50.45
9110;BME280;4590;51.462;6.692;2023-02-28T08:16:39;102928.88;;;3.87;49.97
9110;BME280;4590;51.462;6.692;2023-02-28T08:19:04;102936.00;;;4.02;49.91
9110;BME280;4590;51.462;6.692;2023-02-28T08:21:30;102936.63;;;4.10;49.34
9110;BME280;4590;51.462;6.692;2023-02-28T08:23:55;102926.38;;;4.19;49.37
9110;BME280;4590;51.462;6.692;2023-02-28T08:26:22;102929.50;;;4.29;48.91
9110;BME280;4590;51.462;6.692;2023-02-28T08:28:47;102926.78;;;4.36;48.84
9110;BME280;4590;51.462;6.692;2023-02-28T08:31:14;102928.22;;;4.51;48.32
9110;BME280;4590;51.462;6.692;2023-02-28T08:33:40;102929.84;;;4.66;48.00
9110;BME280;4590;51.462;6.692;2023-02-28T08:36:08;102936.34;;;4.71;47.70
9110;BME280;4590;51.462;6.692;2023-02-28T08:38:34;102927.94;;;4.79;47.23
9110;BME280;4590;51.462;6.692;2023-02-28T08:41:02;102927.47;;;4.89;46.71
9110;BME280;4590;51.462;6.692;2023-02-28T08:43:28;102932.06;;;5.02;46.87
9110;BME280;4590;51.462;6.692;2023-02-28T08:45:55;102930.53;;;5.12;46.27
9110;BME280;4590;51.462;6.692;2023-02-28T08:48:22;102934.66;;;5.28;46.10
9110;BME280;4590;51.462;6.692;2023-02-28T08:51:03;102932.75;;;5.35;45.43
9110;BME280;4590;51.462;6.692;2023-02-28T08:53:28;102920.50;;;5.44;45.26
9110;BME280;4590;51.462;6.692;2023-02-28T08:55:58;102931.22;;;5.46;44.08
9110;BME280;4590;51.462;6.692;2023-02-28T08:58:24;102928.41;;;5.59;44.30
9110;BME280;4590;51.462;6.692;2023-02-28T09:00:50;102922.66;;;5.67;43.98
9110;BME280;4590;51.462;6.692;2023-02-28T09:03:15;102931.66;;;5.74;44.19
9110;BME280;4590;51.462;6.692;2023-02-28T09:05:51;102931.22;;;5.77;41.24
9110;BME280;4590;51.462;6.692;2023-02-28T09:08:17;102914.25;;;6.00;42.89
9110;BME280;4590;51.462;6.692;2023-02-28T09:10:42;102912.47;;;6.12;42.42
9110;BME280;4590;51.462;6.692;2023-02-28T09:13:07;102906.22;;;6.05;42.37
9110;BME280;4590;51.462;6.692;2023-02-28T09:15:32;102906.34;;;5.92;41.57
9110;BME280;4590;51.462;6.692;2023-02-28T09:17:57;102904.44;;;6.17;41.14
9110;BME280;4590;51.462;6.692;2023-02-28T09:20:23;102898.75;;;6.19;39.39
9110;BME280;4590;51.462;6.692;2023-02-28T09:22:48;102904.09;;;6.50;40.86
9110;BME280;4590;51.462;6.692;2023-02-28T09:25:16;102894.91;;;6.63;40.65
9110;BME280;4590;51.462;6.692;2023-02-28T09:27:41;102902.59;;;6.73;40.04
9110;BME280;4590;51.462;6.692;2023-02-28T09:30:07;102900.38;;;6.63;39.75
9110;BME280;4590;51.462;6.692;2023-02-28T09:32:33;102894.75;;;6.40;38.70
9110;BME280;4590;51.462;6.692;2023-02-28T09:34:59;102906.44;;;5.72;34.80
9110;BME280;4590;51.462;6.692;2023-02-28T09:37:26;102904.31;;;6.49;37.65
9110;BME280;4590;51.462;6.692;2023-02-28T09:39:54;102895.75;;;6.63;37.61
9110;BME280;4590;51.462;6.692;2023-02-28T09:42:31;102892.28;;;6.13;34.53
9110;BME280;4590;51.462;6.692;2023-02-28T09:44:58;102896.97;;;6.67;36.02
9110;BME280;4590;51.462;6.692;2023-02-28T09:47:31;102890.88;;;6.84;35.61
9110;BME280;4590;51.462;6.692;2023-02-28T09:50:04;102891.72;;;6.84;33.97
9110;BME280;4590;51.462;6.692;2023-02-28T09:52:35;102906.97;;;7.10;36.25
9110;BME280;4590;51.462;6.692;2023-02-28T09:55:33;102892.38;;;6.98;34.53
9110;BME280;4590;51.462;6.692;2023-02-28T09:58:01;102889.66;;;6.80;34.88
9110;BME280;4590;51.462;6.692;2023-02-28T10:00:33;102896.97;;;7.04;35.73
9110;BME280;4590;51.462;6.692;2023-02-28T10:03:29;102899.03;;;6.90;32.79
9110;BME280;4590;51.462;6.692;2023-02-28T10:07:05;102893.16;;;7.05;34.28
9110;BME280;4590;51.462;6.692;2023-02-28T10:09:05;102900.44;;;7.11;34.86
9110;BME280;4590;51.462;6.692;2023-02-28T10:11:36;102878.41;;;7.06;34.46
9110;BME280;4590;51.462;6.692;2023-02-28T10:14:10;102896.00;;;7.10;33.92
9110;BME280;4590;51.462;6.692;2023-02-28T10:17:04;102891.66;;;6.54;33.38
9110;BME280;4590;51.462;6.692;2023-02-28T10:22:21;102888.31;;;6.71;33.59
9110;BME280;4590;51.462;6.692;2023-02-28T10:24:50;102889.38;;;6.69;34.53
9110;BME280;4590;51.462;6.692;2023-02-28T10:27:23;102890.94;;;6.22;34.24
9110;BME280;4590;51.462;6.692;2023-02-28T10:29:52;102884.81;;;6.63;33.80
9110;BME280;4590;51.462;6.692;2023-02-28T10:32:24;102894.69;;;6.64;34.31
9110;BME280;4590;51.462;6.692;2023-02-28T10:37:41;102907.28;;;6.29;32.82
9110;BME280;4590;51.462;6.692;2023-02-28T10:46:13;102878.59;;;6.75;32.88
9110;BME280;4590;51.462;6.692;2023-02-28T10:48:57;102875.31;;;6.66;33.25
9110;BME280;4590;51.462;6.692;2023-02-28T10:51:34;102879.09;;;6.83;33.01
9110;BME280;4590;51.462;6.692;2023-02-28T10:54:00;102887.41;;;6.77;34.08
9110;BME280;4590;51.462;6.692;2023-02-28T10:56:25;102874.38;;;6.36;33.95
9110;BME280;4590;51.462;6.692;2023-02-28T11:01:25;102871.75;;;6.29;34.07
9110;BME280;4590;51.462;6.692;2023-02-28T11:03:58;102868.41;;;6.02;34.48
9110;BME280;4590;51.462;6.692;2023-02-28T11:06:31;102860.66;;;6.42;33.46
9110;BME280;4590;51.462;6.692;2023-02-28T11:09:00;102878.34;;;6.40;33.33
9110;BME280;4590;51.462;6.692;2023-02-28T11:11:28;102873.94;;;6.39;34.16
9110;BME280;4590;51.462;6.692;2023-02-28T11:13:57;102865.44;;;6.04;33.94
9110;BME280;4590;51.462;6.692;2023-02-28T11:16:35;102868.66;;;6.19;34.42
9110;BME280;4590;51.462;6.692;2023-02-28T11:19:04;102848.13;;;5.35;34.26
9110;BME280;4590;51.462;6.692;2023-02-28T11:21:36;102864.22;;;5.99;34.20
9110;BME280;4590;51.462;6.692;2023-02-28T11:24:24;102870.75;;;5.98;33.87
9110;BME280;4590;51.462;6.692;2023-02-28T11:26:51;102870.66;;;6.12;33.73
9110;BME280;4590;51.462;6.692;2023-02-28T11:29:25;102866.25;;;6.11;33.94
9110;BME280;4590;51.462;6.692;2023-02-28T11:32:19;102862.94;;;6.45;33.53
9110;BME280;4590;51.462;6.692;2023-02-28T11:34:47;102865.38;;;6.72;33.64
9110;BME280;4590;51.462;6.692;2023-02-28T11:37:24;102869.38;;;6.51;34.32
9110;BME280;4590;51.462;6.692;2023-02-28T11:39:51;102875.03;;;6.74;33.92
9110;BME280;4590;51.462;6.692;2023-02-28T11:45:43;102871.56;;;6.79;32.92
9110;BME280;4590;51.462;6.692;2023-02-28T11:50:52;102864.13;;;6.31;33.46
9110;BME280;4590;51.462;6.692;2023-02-28T11:53:42;102866.56;;;6.39;33.38
9110;BME280;4590;51.462;6.692;2023-02-28T11:56:10;102860.03;;;6.22;34.61
9110;BME280;4590;51.462;6.692;2023-02-28T12:04:48;102850.19;;;5.96;34.09
9110;BME280;4590;51.462;6.692;2023-02-28T12:10:29;102845.56;;;5.96;34.22
9110;BME280;4590;51.462;6.692;2023-02-28T12:13:21;102831.28;;;5.94;35.26
9110;BME280;4590;51.462;6.692;2023-02-28T12:16:06;102844.94;;;5.94;34.90
9110;BME280;4590;51.462;6.692;2023-02-28T12:18:55;102823.41;;;6.05;35.15
9110;BME280;4590;51.462;6.692;2023-02-28T12:26:42;102813.31;;;5.80;35.16
9110;BME280;4590;51.462;6.692;2023-02-28T12:29:19;102799.94;;;5.97;35.14
9110;BME280;4590;51.462;6.692;2023-02-28T12:32:13;102808.22;;;5.59;35.15
9110;BME280;4590;51.462;6.692;2023-02-28T12:34:45;102804.00;;;5.63;34.84
9110;BME280;4590;51.462;6.692;2023-02-28T12:37:28;102791.06;;;5.77;34.61
9110;BME280;4590;51.462;6.692;2023-02-28T12:40:02;102796.22;;;5.85;35.16
9110;BME280;4590;51.462;6.692;2023-02-28T12:42:36;102794.91;;;5.69;35.53
9110;BME280;4590;51.462;6.692;2023-02-28T12:45:11;102790.97;;;5.83;34.52
9110;BME280;4590;51.462;6.692;2023-02-28T12:47:40;102791.97;;;5.46;35.17
9110;BME280;4590;51.462;6.692;2023-02-28T12:50:10;102779.81;;;5.91;35.33
9110;BME280;4590;51.462;6.692;2023-02-28T12:52:56;102780.09;;;5.58;35.17
9110;BME280;4590;51.462;6.692;2023-02-28T13:09:15;102748.59;;;5.99;35.62
9110;BME280;4590;51.462;6.692;2023-02-28T13:11:43;102746.59;;;5.94;35.15
9110;BME280;4590;51.462;6.692;2023-02-28T13:19:25;102765.25;;;5.97;35.66
9110;BME280;4590;51.462;6.692;2023-02-28T13:21:53;102751.59;;;5.97;35.81
9110;BME280;4590;51.462;6.692;2023-02-28T13:29:31;102739.28;;;6.43;35.15
9110;BME280;4590;51.462;6.692;2023-02-28T13:35:34;102733.94;;;6.30;36.42
9110;BME280;4590;51.462;6.692;2023-02-28T13:37:35;102741.56;;;6.28;35.41
9110;BME280;4590;51.462;6.692;2023-02-28T13:42:36;102729.81;;;6.27;36.08
9110;BME280;4590;51.462;6.692;2023-02-28T13:47:40;102730.09;;;6.19;36.17
9110;BME280;4590;51.462;6.692;2023-02-28T14:01:38;102744.59;;;5.58;36.80
9110;BME280;4590;51.462;6.692;2023-02-28T14:04:38;102724.72;;;5.94;36.46
9110;BME280;4590;51.462;6.692;2023-02-28T14:07:20;102727.44;;;5.94;37.15
9110;BME280;4590;51.462;6.692;2023-02-28T14:09:55;102729.72;;;5.54;38.05
9110;BME280;4590;51.462;6.692;2023-02-28T14:12:56;102732.16;;;6.06;37.20
9110;BME280;4590;51.462;6.692;2023-02-28T14:15:30;102722.66;;;6.08;37.61
9110;BME280;4590;51.462;6.692;2023-02-28T14:18:03;102715.53;;;6.25;37.27
9110;BME280;4590;51.462;6.692;2023-02-28T14:20:31;102718.53;;;6.36;37.23
9110;BME280;4590;51.462;6.692;2023-02-28T14:23:15;102711.94;;;6.43;37.50
9110;BME280;4590;51.462;6.692;2023-02-28T14:31:17;102722.31;;;6.53;37.69
9110;BME280;4590;51.462;6.692;2023-02-28T14:36:52;102715.41;;;6.50;38.13
9110;BME280;4590;51.462;6.692;2023-02-28T14:39:25;102723.91;;;6.60;37.86
9110;BME280;4590;51.462;6.692;2023-02-28T14:41:51;102710.34;;;6.65;37.35
9110;BME280;4590;51.462;6.692;2023-02-28T14:44:20;102723.28;;;6.58;37.50
9110;BME280;4590;51.462;6.692;2023-02-28T14:46:52;102719.91;;;6.45;37.73
9110;BME280;4590;51.462;6.692;2023-02-28T14:51:49;102701.50;;;6.52;37.92
9110;BME280;4590;51.462;6.692;2023-02-28T14:54:18;102700.19;;;6.54;37.70
9110;BME280;4590;51.462;6.692;2023-02-28T14:56:49;102709.00;;;6.56;38.18
9110;BME280;4590;51.462;6.692;2023-02-28T14:59:28;102719.66;;;6.46;37.68
9110;BME280;4590;51.462;6.692;2023-02-28T15:02:14;102716.69;;;6.48;37.61
9110;BME280;4590;51.462;6.692;2023-02-28T15:04:39;102704.59;;;6.55;38.08
9110;BME280;4590;51.462;6.692;2023-02-28T15:07:11;102711.00;;;6.49;37.64
9110;BME280;4590;51.462;6.692;2023-02-28T15:09:38;102710.53;;;6.52;38.52
9110;BME280;4590;51.462;6.692;2023-02-28T15:12:03;102694.16;;;6.34;38.20
9110;BME280;4590;51.462;6.692;2023-02-28T15:14:28;102707.66;;;6.47;37.83
9110;BME280;4590;51.462;6.692;2023-02-28T15:17:01;102712.63;;;6.39;37.32
9110;BME280;4590;51.462;6.692;2023-02-28T15:19:39;102700.69;;;6.33;37.28
9110;BME280;4590;51.462;6.692;2023-02-28T15:22:12;102687.44;;;6.00;38.38
9110;BME280;4590;51.462;6.692;2023-02-28T15:24:45;102702.34;;;6.34;38.46
9110;BME280;4590;51.462;6.692;2023-02-28T15:27:19;102705.19;;;6.27;39.43
9110;BME280;4590;51.462;6.692;2023-02-28T15:29:51;102711.09;;;6.43;38.49